sensor_id;sensor_type;location;lat;lon;timestamp;P1;durP1;ratioP1;P2;durP2;ratioP2
25569;SDS011;17955;45.542;9.238;2022-11-20T01:42:16;31.88;;;17.75;;
25569;SDS011;17955;45.542;9.238;2022-11-20T01:50:47;35.15;;;18.08;;
25569;SDS011;17955;45.542;9.238;2022-11-20T01:55:56;30.00;;;17.42;;
25569;SDS011;17955;45.542;9.238;2022-11-20T02:09:38;30.73;;;15.68;;
25569;SDS011;17955;45.542;9.238;2022-11-20T03:35:48;18.30;;;10.05;;
25569;SDS011;17955;45.542;9.238;2022-11-20T03:38:54;13.32;;;8.45;;
25569;SDS011;17955;45.542;9.238;2022-11-20T03:42:20;18.50;;;9.73;;
25569;SDS011;17955;45.542;9.238;2022-11-20T03:45:21;15.38;;;9.32;;
25569;SDS011;17955;45.542;9.238;2022-11-20T04:41:34;15.25;;;8.38;;
25569;SDS011;17955;45.542;9.238;2022-11-20T04:44:52;14.60;;;7.90;;
25569;SDS011;17955;45.542;9.238;2022-11-20T04:47:42;16.63;;;8.80;;
25569;SDS011;17955;45.542;9.238;2022-11-20T05:08:00;11.75;;;7.13;;
25569;SDS011;17955;45.542;9.238;2022-11-20T05:31:06;10.55;;;6.70;;
25569;SDS011;17955;45.542;9.238;2022-11-20T05:34:17;13.30;;;6.60;;
25569;SDS011;17955;45.542;9.238;2022-11-20T05:37:45;11.00;;;6.53;;
25569;SDS011;17955;45.542;9.238;2022-11-20T05:44:23;12.32;;;7.45;;
25569;SDS011;17955;45.542;9.238;2022-11-20T06:15:37;9.65;;;5.80;;
25569;SDS011;17955;45.542;9.238;2022-11-20T07:24:15;8.63;;;4.95;;
25569;SDS011;17955;45.542;9.238;2022-11-20T07:27:23;12.50;;;5.65;;
25569;SDS011;17955;45.542;9.238;2022-11-20T07:33:44;8.70;;;5.20;;
25569;SDS011;17955;45.542;9.238;2022-11-20T08:13:18;9.15;;;5.65;;
25569;SDS011;17955;45.542;9.238;2022-11-20T08:16:14;10.85;;;5.60;;
25569;SDS011;17955;45.542;9.238;2022-11-20T08:18:54;9.02;;;4.75;;
25569;SDS011;17955;45.542;9.238;2022-11-20T08:21:51;13.00;;;5.20;;
25569;SDS011;17955;45.542;9.238;2022-11-20T08:24:54;8.18;;;4.38;;
25569;SDS011;17955;45.542;9.238;2022-11-20T08:27:54;11.85;;;5.53;;
25569;SDS011;17955;45.542;9.238;2022-11-20T08:31:12;6.93;;;4.85;;
25569;SDS011;17955;45.542;9.238;2022-11-20T08:45:18;5.30;;;3.40;;
25569;SDS011;17955;45.542;9.238;2022-11-20T08:47:34;8.23;;;3.70;;
25569;SDS011;17955;45.542;9.238;2022-11-20T08:50:17;8.90;;;3.80;;
25569;SDS011;17955;45.542;9.238;2022-11-20T08:54:14;10.70;;;4.72;;
25569;SDS011;17955;45.542;9.238;2022-11-20T09:01:22;5.00;;;2.80;;
25569;SDS011;17955;45.542;9.238;2022-11-20T09:10:36;5.93;;;3.08;;
25569;SDS011;17955;45.542;9.238;2022-11-20T09:13:27;6.18;;;3.33;;
25569;SDS011;17955;45.542;9.238;2022-11-20T09:16:08;4.78;;;2.83;;
25569;SDS011;17955;45.542;9.238;2022-11-20T09:19:13;7.60;;;3.50;;
25569;SDS011;17955;45.542;9.238;2022-11-20T09:22:19;5.47;;;3.35;;
25569;SDS011;17955;45.542;9.238;2022-11-20T09:24:59;5.80;;;3.28;;
25569;SDS011;17955;45.542;9.238;2022-11-20T09:27:54;5.68;;;3.53;;
25569;SDS011;17955;45.542;9.238;2022-11-20T09:34:04;8.00;;;4.85;;
25569;SDS011;17955;45.542;9.238;2022-11-20T09:50:43;9.65;;;4.80;;
25569;SDS011;17955;45.542;9.238;2022-11-20T10:00:00;7.30;;;3.95;;
25569;SDS011;17955;45.542;9.238;2022-11-20T10:02:37;9.05;;;4.30;;
25569;SDS011;17955;45.542;9.238;2022-11-20T10:05:09;7.50;;;3.90;;
25569;SDS011;17955;45.542;9.238;2022-11-20T10:07:41;6.60;;;3.80;;
25569;SDS011;17955;45.542;9.238;2022-11-20T10:10:13;7.00;;;3.20;;
25569;SDS011;17955;45.542;9.238;2022-11-20T10:12:47;6.53;;;3.22;;
25569;SDS011;17955;45.542;9.238;2022-11-20T10:15:24;11.13;;;3.58;;
25569;SDS011;17955;45.542;9.238;2022-11-20T10:17:57;5.60;;;3.30;;
25569;SDS011;17955;45.542;9.238;2022-11-20T10:20:28;5.70;;;3.42;;
25569;SDS011;17955;45.542;9.238;2022-11-20T10:23:02;5.10;;;3.20;;
25569;SDS011;17955;45.542;9.238;2022-11-20T10:25:37;6.88;;;3.28;;
25569;SDS011;17955;45.542;9.238;2022-11-20T10:28:21;6.68;;;4.15;;
25569;SDS011;17955;45.542;9.238;2022-11-20T10:30:54;5.00;;;3.40;;
25569;SDS011;17955;45.542;9.238;2022-11-20T10:33:24;5.32;;;3.10;;
25569;SDS011;17955;45.542;9.238;2022-11-20T10:35:54;6.28;;;3.80;;
25569;SDS011;17955;45.542;9.238;2022-11-20T10:38:25;6.55;;;3.67;;
25569;SDS011;17955;45.542;9.238;2022-11-20T10:40:58;6.30;;;4.07;;
25569;SDS011;17955;45.542;9.238;2022-11-20T10:43:40;8.20;;;3.83;;
25569;SDS011;17955;45.542;9.238;2022-11-20T10:46:08;7.88;;;3.88;;
25569;SDS011;17955;45.542;9.238;2022-11-20T10:48:37;9.63;;;4.10;;
25569;SDS011;17955;45.542;9.238;2022-11-20T10:51:12;7.55;;;4.25;;
25569;SDS011;17955;45.542;9.238;2022-11-20T10:53:47;9.52;;;4.70;;
25569;SDS011;17955;45.542;9.238;2022-11-20T10:56:20;6.40;;;4.13;;
25569;SDS011;17955;45.542;9.238;2022-11-20T10:58:52;10.52;;;4.25;;
25569;SDS011;17955;45.542;9.238;2022-11-20T11:01:21;7.28;;;4.70;;
25569;SDS011;17955;45.542;9.238;2022-11-20T11:03:51;8.18;;;4.80;;
25569;SDS011;17955;45.542;9.238;2022-11-20T11:06:21;9.60;;;4.57;;
25569;SDS011;17955;45.542;9.238;2022-11-20T11:08:53;8.30;;;4.18;;
25569;SDS011;17955;45.542;9.238;2022-11-20T11:11:21;14.13;;;5.15;;
25569;SDS011;17955;45.542;9.238;2022-11-20T11:13:49;8.15;;;4.63;;
25569;SDS011;17955;45.542;9.238;2022-11-20T11:16:19;6.97;;;4.68;;
25569;SDS011;17955;45.542;9.238;2022-11-20T11:18:47;10.20;;;5.60;;
25569;SDS011;17955;45.542;9.238;2022-11-20T11:21:19;12.82;;;5.80;;
25569;SDS011;17955;45.542;9.238;2022-11-20T11:23:48;8.73;;;4.93;;
25569;SDS011;17955;45.542;9.238;2022-11-20T11:26:28;7.18;;;4.90;;
25569;SDS011;17955;45.542;9.238;2022-11-20T11:28:59;8.27;;;5.40;;
25569;SDS011;17955;45.542;9.238;2022-11-20T11:31:28;8.05;;;5.30;;
25569;SDS011;17955;45.542;9.238;2022-11-20T11:34:04;10.70;;;5.35;;
25569;SDS011;17955;45.542;9.238;2022-11-20T11:39:01;9.95;;;5.88;;
25569;SDS011;17955;45.542;9.238;2022-11-20T11:41:33;8.95;;;5.63;;
25569;SDS011;17955;45.542;9.238;2022-11-20T11:44:03;10.23;;;5.38;;
25569;SDS011;17955;45.542;9.238;2022-11-20T11:46:57;8.25;;;5.43;;
25569;SDS011;17955;45.542;9.238;2022-11-20T12:10:45;13.32;;;8.07;;
25569;SDS011;17955;45.542;9.238;2022-11-20T12:18:31;11.25;;;6.90;;
25569;SDS011;17955;45.542;9.238;2022-11-20T12:25:01;12.23;;;6.30;;
25569;SDS011;17955;45.542;9.238;2022-11-20T12:35:24;11.25;;;6.40;;
25569;SDS011;17955;45.542;9.238;2022-11-20T12:38:48;14.70;;;7.10;;
25569;SDS011;17955;45.542;9.238;2022-11-20T12:45:23;11.80;;;6.90;;
25569;SDS011;17955;45.542;9.238;2022-11-20T13:02:10;13.43;;;7.57;;
25569;SDS011;17955;45.542;9.238;2022-11-20T13:05:26;11.32;;;7.00;;
25569;SDS011;17955;45.542;9.238;2022-11-20T13:08:11;10.95;;;6.80;;
25569;SDS011;17955;45.542;9.238;2022-11-20T13:10:54;12.95;;;6.75;;
25569;SDS011;17955;45.542;9.238;2022-11-20T13:48:39;8.82;;;5.60;;
25569;SDS011;17955;45.542;9.238;2022-11-20T13:56:50;9.93;;;6.15;;
25569;SDS011;17955;45.542;9.238;2022-11-20T13:58:58;12.73;;;6.05;;
25569;SDS011;17955;45.542;9.238;2022-11-20T14:02:59;11.70;;;5.97;;
25569;SDS011;17955;45.542;9.238;2022-11-20T14:33:36;7.05;;;3.80;;
25569;SDS011;17955;45.542;9.238;2022-11-20T14:47:00;8.02;;;4.05;;
25569;SDS011;17955;45.542;9.238;2022-11-20T14:55:26;6.30;;;3.33;;
25569;SDS011;17955;45.542;9.238;2022-11-20T14:57:57;6.57;;;3.50;;
25569;SDS011;17955;45.542;9.238;2022-11-20T15:00:26;5.60;;;3.58;;
25569;SDS011;17955;45.542;9.238;2022-11-20T15:03:02;5.00;;;3.08;;
25569;SDS011;17955;45.542;9.238;2022-11-20T15:16:05;3.65;;;2.08;;
25569;SDS011;17955;45.542;9.238;2022-11-20T15:19:04;5.43;;;2.70;;
25569;SDS011;17955;45.542;9.238;2022-11-20T15:21:37;3.83;;;2.22;;
25569;SDS011;17955;45.542;9.238;2022-11-20T15:24:07;4.07;;;2.50;;
25569;SDS011;17955;45.542;9.238;2022-11-20T15:26:36;4.82;;;2.65;;
25569;SDS011;17955;45.542;9.238;2022-11-20T15:29:07;6.05;;;2.78;;
25569;SDS011;17955;45.542;9.238;2022-11-20T15:31:41;8.65;;;3.00;;
25569;SDS011;17955;45.542;9.238;2022-11-20T15:34:10;5.95;;;2.78;;
25569;SDS011;17955;45.542;9.238;2022-11-20T15:36:39;7.13;;;2.75;;
25569;SDS011;17955;45.542;9.238;2022-11-20T15:39:07;6.82;;;3.08;;
25569;SDS011;17955;45.542;9.238;2022-11-20T15:41:38;7.95;;;2.88;;
25569;SDS011;17955;45.542;9.238;2022-11-20T15:44:05;5.03;;;2.88;;
25569;SDS011;17955;45.542;9.238;2022-11-20T15:46:35;8.60;;;3.00;;
25569;SDS011;17955;45.542;9.238;2022-11-20T15:49:08;7.60;;;2.70;;
25569;SDS011;17955;45.542;9.238;2022-11-20T15:51:50;5.60;;;2.60;;
25569;SDS011;17955;45.542;9.238;2022-11-20T15:54:19;6.55;;;3.05;;
25569;SDS011;17955;45.542;9.238;2022-11-20T15:56:48;4.38;;;2.55;;
25569;SDS011;17955;45.542;9.238;2022-11-20T15:59:17;5.40;;;2.65;;
25569;SDS011;17955;45.542;9.238;2022-11-20T16:01:45;6.28;;;2.75;;
25569;SDS011;17955;45.542;9.238;2022-11-20T16:04:16;6.18;;;2.80;;
25569;SDS011;17955;45.542;9.238;2022-11-20T16:06:44;7.32;;;3.92;;
25569;SDS011;17955;45.542;9.238;2022-11-20T16:09:12;5.80;;;2.90;;
25569;SDS011;17955;45.542;9.238;2022-11-20T16:11:39;7.70;;;3.33;;
25569;SDS011;17955;45.542;9.238;2022-11-20T16:14:08;9.50;;;3.60;;
25569;SDS011;17955;45.542;9.238;2022-11-20T16:16:55;9.65;;;3.90;;
25569;SDS011;17955;45.542;9.238;2022-11-20T16:19:25;12.10;;;3.65;;
25569;SDS011;17955;45.542;9.238;2022-11-20T16:21:53;11.77;;;4.32;;
25569;SDS011;17955;45.542;9.238;2022-11-20T16:24:20;7.53;;;3.20;;
25569;SDS011;17955;45.542;9.238;2022-11-20T16:26:48;8.35;;;3.53;;
25569;SDS011;17955;45.542;9.238;2022-11-20T16:29:16;12.27;;;3.97;;
25569;SDS011;17955;45.542;9.238;2022-11-20T16:31:43;5.35;;;3.08;;
25569;SDS011;17955;45.542;9.238;2022-11-20T16:34:11;9.20;;;3.80;;
25569;SDS011;17955;45.542;9.238;2022-11-20T16:36:43;9.68;;;3.80;;
25569;SDS011;17955;45.542;9.238;2022-11-20T16:48:40;11.68;;;5.00;;
25569;SDS011;17955;45.542;9.238;2022-11-20T17:05:39;6.90;;;3.58;;
25569;SDS011;17955;45.542;9.238;2022-11-20T17:09:00;7.22;;;3.47;;
25569;SDS011;17955;45.542;9.238;2022-11-20T17:11:44;7.22;;;3.95;;
25569;SDS011;17955;45.542;9.238;2022-11-20T17:14:58;7.38;;;4.05;;
25569;SDS011;17955;45.542;9.238;2022-11-20T17:37:45;12.88;;;5.85;;
25569;SDS011;17955;45.542;9.238;2022-11-20T17:40:40;18.70;;;12.13;;
25569;SDS011;17955;45.542;9.238;2022-11-20T18:16:10;147.27;;;75.50;;
25569;SDS011;17955;45.542;9.238;2022-11-20T18:18:44;31.67;;;16.42;;
25569;SDS011;17955;45.542;9.238;2022-11-20T18:21:11;16.52;;;7.45;;
25569;SDS011;17955;45.542;9.238;2022-11-20T18:23:39;12.90;;;6.05;;
25569;SDS011;17955;45.542;9.238;2022-11-20T18:26:06;11.63;;;5.30;;
25569;SDS011;17955;45.542;9.238;2022-11-20T18:28:35;7.97;;;5.18;;
25569;SDS011;17955;45.542;9.238;2022-11-20T18:31:04;8.48;;;4.85;;
25569;SDS011;17955;45.542;9.238;2022-11-20T18:33:34;16.23;;;5.32;;
25569;SDS011;17955;45.542;9.238;2022-11-20T18:36:07;13.85;;;5.18;;
25569;SDS011;17955;45.542;9.238;2022-11-20T18:38:38;9.40;;;5.82;;
25569;SDS011;17955;45.542;9.238;2022-11-20T18:41:12;18.58;;;6.05;;
25569;SDS011;17955;45.542;9.238;2022-11-20T18:43:53;11.32;;;6.07;;
25569;SDS011;17955;45.542;9.238;2022-11-20T18:46:38;12.52;;;6.85;;
25569;SDS011;17955;45.542;9.238;2022-11-20T18:49:12;11.00;;;5.55;;
25569;SDS011;17955;45.542;9.238;2022-11-20T18:51:40;13.63;;;6.18;;
25569;SDS011;17955;45.542;9.238;2022-11-20T18:54:11;9.30;;;5.05;;
25569;SDS011;17955;45.542;9.238;2022-11-20T18:56:39;10.88;;;5.35;;
25569;SDS011;17955;45.542;9.238;2022-11-20T18:59:10;9.93;;;5.43;;
25569;SDS011;17955;45.542;9.238;2022-11-20T19:01:39;11.88;;;6.30;;
25569;SDS011;17955;45.542;9.238;2022-11-20T19:04:07;17.85;;;6.82;;
25569;SDS011;17955;45.542;9.238;2022-11-20T19:06:37;14.80;;;7.15;;
25569;SDS011;17955;45.542;9.238;2022-11-20T19:09:05;12.30;;;6.72;;
25569;SDS011;17955;45.542;9.238;2022-11-20T19:11:34;17.30;;;8.02;;
25569;SDS011;17955;45.542;9.238;2022-11-20T19:14:01;15.60;;;8.75;;
25569;SDS011;17955;45.542;9.238;2022-11-20T19:16:31;19.00;;;7.70;;
25569;SDS011;17955;45.542;9.238;2022-11-20T19:18:59;16.70;;;7.88;;
25569;SDS011;17955;45.542;9.238;2022-11-20T19:21:30;13.48;;;6.43;;
25569;SDS011;17955;45.542;9.238;2022-11-20T19:24:00;18.73;;;7.72;;
25569;SDS011;17955;45.542;9.238;2022-11-20T19:26:41;16.70;;;8.55;;
25569;SDS011;17955;45.542;9.238;2022-11-20T19:50:00;22.55;;;12.00;;
25569;SDS011;17955;45.542;9.238;2022-11-20T19:54:25;17.40;;;9.40;;
25569;SDS011;17955;45.542;9.238;2022-11-20T19:57:06;21.05;;;10.75;;
25569;SDS011;17955;45.542;9.238;2022-11-20T20:00:41;19.67;;;9.73;;
25569;SDS011;17955;45.542;9.238;2022-11-20T20:03:52;22.52;;;11.05;;
25569;SDS011;17955;45.542;9.238;2022-11-20T20:51:54;25.35;;;12.65;;
25569;SDS011;17955;45.542;9.238;2022-11-20T20:54:21;22.65;;;11.70;;
25569;SDS011;17955;45.542;9.238;2022-11-20T20:56:49;26.88;;;12.80;;
25569;SDS011;17955;45.542;9.238;2022-11-20T20:59:17;22.02;;;11.75;;
25569;SDS011;17955;45.542;9.238;2022-11-20T21:01:47;19.92;;;11.77;;
25569;SDS011;17955;45.542;9.238;2022-11-20T21:04:15;23.67;;;11.55;;
25569;SDS011;17955;45.542;9.238;2022-11-20T21:06:42;24.40;;;12.18;;
25569;SDS011;17955;45.542;9.238;2022-11-20T21:09:10;20.45;;;11.85;;
25569;SDS011;17955;45.542;9.238;2022-11-20T21:11:38;21.20;;;12.55;;
25569;SDS011;17955;45.542;9.238;2022-11-20T21:14:05;24.45;;;13.23;;
25569;SDS011;17955;45.542;9.238;2022-11-20T21:16:33;22.60;;;13.25;;
25569;SDS011;17955;45.542;9.238;2022-11-20T21:19:08;28.55;;;13.70;;
25569;SDS011;17955;45.542;9.238;2022-11-20T21:21:35;23.88;;;13.27;;
25569;SDS011;17955;45.542;9.238;2022-11-20T21:24:21;28.45;;;14.82;;
25569;SDS011;17955;45.542;9.238;2022-11-20T21:26:49;27.05;;;13.75;;
25569;SDS011;17955;45.542;9.238;2022-11-20T21:29:17;29.27;;;14.18;;
25569;SDS011;17955;45.542;9.238;2022-11-20T21:31:45;24.70;;;13.63;;
25569;SDS011;17955;45.542;9.238;2022-11-20T21:34:13;26.17;;;14.93;;
25569;SDS011;17955;45.542;9.238;2022-11-20T21:36:41;22.63;;;13.68;;
25569;SDS011;17955;45.542;9.238;2022-11-20T21:39:09;24.25;;;14.40;;
25569;SDS011;17955;45.542;9.238;2022-11-20T21:41:39;25.00;;;13.40;;
25569;SDS011;17955;45.542;9.238;2022-11-20T21:44:08;22.25;;;12.55;;
25569;SDS011;17955;45.542;9.238;2022-11-20T21:46:37;31.75;;;14.00;;
25569;SDS011;17955;45.542;9.238;2022-11-20T21:49:05;25.95;;;13.55;;
25569;SDS011;17955;45.542;9.238;2022-11-20T21:51:33;25.75;;;13.57;;
25569;SDS011;17955;45.542;9.238;2022-11-20T21:54:11;25.45;;;13.77;;
25569;SDS011;17955;45.542;9.238;2022-11-20T21:56:40;22.75;;;14.00;;
25569;SDS011;17955;45.542;9.238;2022-11-20T21:59:09;21.92;;;13.02;;
25569;SDS011;17955;45.542;9.238;2022-11-20T22:01:38;30.52;;;13.55;;
25569;SDS011;17955;45.542;9.238;2022-11-20T22:04:06;23.73;;;13.02;;
25569;SDS011;17955;45.542;9.238;2022-11-20T22:06:33;26.85;;;13.48;;
25569;SDS011;17955;45.542;9.238;2022-11-20T22:09:01;24.83;;;12.93;;
25569;SDS011;17955;45.542;9.238;2022-11-20T22:11:28;31.55;;;14.15;;
25569;SDS011;17955;45.542;9.238;2022-11-20T22:13:57;26.50;;;13.88;;
25569;SDS011;17955;45.542;9.238;2022-11-20T22:16:42;26.75;;;14.07;;
25569;SDS011;17955;45.542;9.238;2022-11-20T22:19:10;24.77;;;13.82;;
25569;SDS011;17955;45.542;9.238;2022-11-20T22:21:38;21.70;;;13.07;;
25569;SDS011;17955;45.542;9.238;2022-11-20T22:24:06;27.40;;;14.00;;
25569;SDS011;17955;45.542;9.238;2022-11-20T22:26:36;29.90;;;13.48;;
25569;SDS011;17955;45.542;9.238;2022-11-20T22:29:09;22.67;;;13.02;;
25569;SDS011;17955;45.542;9.238;2022-11-20T22:31:38;22.20;;;13.57;;
25569;SDS011;17955;45.542;9.238;2022-11-20T22:34:08;23.17;;;13.65;;
25569;SDS011;17955;45.542;9.238;2022-11-20T22:36:36;22.50;;;13.20;;
25569;SDS011;17955;45.542;9.238;2022-11-20T22:39:03;24.27;;;14.18;;
25569;SDS011;17955;45.542;9.238;2022-11-20T22:41:31;23.98;;;14.23;;
25569;SDS011;17955;45.542;9.238;2022-11-20T22:43:59;25.48;;;13.70;;
25569;SDS011;17955;45.542;9.238;2022-11-20T22:46:29;24.83;;;13.93;;
25569;SDS011;17955;45.542;9.238;2022-11-20T22:48:58;26.38;;;14.80;;
25569;SDS011;17955;45.542;9.238;2022-11-20T22:51:26;24.30;;;14.50;;
25569;SDS011;17955;45.542;9.238;2022-11-20T22:53:55;24.98;;;14.65;;
25569;SDS011;17955;45.542;9.238;2022-11-20T22:56:22;24.73;;;14.73;;
25569;SDS011;17955;45.542;9.238;2022-11-20T22:58:50;21.50;;;14.10;;
25569;SDS011;17955;45.542;9.238;2022-11-20T23:01:19;21.83;;;13.48;;
25569;SDS011;17955;45.542;9.238;2022-11-20T23:03:49;24.75;;;13.60;;
25569;SDS011;17955;45.542;9.238;2022-11-20T23:06:17;26.15;;;14.32;;
25569;SDS011;17955;45.542;9.238;2022-11-20T23:08:45;25.48;;;14.15;;
25569;SDS011;17955;45.542;9.238;2022-11-20T23:11:14;25.73;;;13.98;;
25569;SDS011;17955;45.542;9.238;2022-11-20T23:13:41;24.52;;;13.63;;
25569;SDS011;17955;45.542;9.238;2022-11-20T23:16:10;25.98;;;14.70;;
25569;SDS011;17955;45.542;9.238;2022-11-20T23:18:38;26.90;;;14.30;;
25569;SDS011;17955;45.542;9.238;2022-11-20T23:21:08;25.35;;;14.70;;
25569;SDS011;17955;45.542;9.238;2022-11-20T23:23:39;24.58;;;13.77;;
25569;SDS011;17955;45.542;9.238;2022-11-20T23:26:08;27.88;;;14.95;;
25569;SDS011;17955;45.542;9.238;2022-11-20T23:28:36;24.55;;;14.00;;
25569;SDS011;17955;45.542;9.238;2022-11-20T23:31:04;27.75;;;14.90;;
25569;SDS011;17955;45.542;9.238;2022-11-20T23:33:33;29.17;;;15.10;;
25569;SDS011;17955;45.542;9.238;2022-11-20T23:36:01;23.90;;;15.73;;
25569;SDS011;17955;45.542;9.238;2022-11-20T23:38:30;28.13;;;15.57;;
25569;SDS011;17955;45.542;9.238;2022-11-20T23:40:58;26.70;;;15.10;;
25569;SDS011;17955;45.542;9.238;2022-11-20T23:43:27;26.73;;;15.68;;
25569;SDS011;17955;45.542;9.238;2022-11-20T23:45:55;27.08;;;16.20;;
25569;SDS011;17955;45.542;9.238;2022-11-20T23:48:24;26.38;;;15.55;;
25569;SDS011;17955;45.542;9.238;2022-11-20T23:50:52;23.33;;;15.02;;
25569;SDS011;17955;45.542;9.238;2022-11-20T23:53:20;26.88;;;14.43;;
25569;SDS011;17955;45.542;9.238;2022-11-20T23:55:50;25.25;;;14.65;;
25569;SDS011;17955;45.542;9.238;2022-11-20T23:58:18;22.25;;;13.68;;
